Time;durP1;ratioP1;P1;durP2;ratioP2;P2;SDS_P1;SDS_P2;PMS_P1;PMS_P2;Temp;Humidity;BMP_temperature;BMP_pressure;BME280_temperature;BME280_humidity;BME280_pressure;Samples;Min_cycle;Max_cycle;Signal;HPM_P1;HPM_P2
2021/10/05 00:08:04;;;;;;;2.67;0.90;;;;;;;;;;21336077;27;20047;-68
2021/10/05 00:18:06;;;;;;;3.30;1.00;;;;;;;;;;21333989;27;20043;-59
2021/10/05 00:28:09;;;;;;;4.63;1.73;;;;;;;;;;21315816;27;20103;-67
2021/10/05 00:38:11;;;;;;;3.22;1.33;;;;;;;;;;21335236;27;20053;-64
2021/10/05 00:48:14;;;;;;;2.80;1.40;;;;;;;;;;21343150;27;20584;-61
2021/10/05 00:58:17;;;;;;;2.28;0.98;;;;;;;;;;21345003;27;20402;-58
2021/10/05 01:08:21;;;;;;;4.22;1.20;;;;;;;;;;21344224;27;20524;-59
2021/10/05 01:18:23;;;;;;;3.57;1.30;;;;;;;;;;21330750;27;20075;-59
2021/10/05 01:28:31;;;;;;;4.80;1.42;;;;;;;;;;21348282;27;20318;-64
2021/10/05 01:38:36;;;;;;;3.05;0.88;;;;;;;;;;21347827;27;20486;-66
2021/10/05 01:48:45;;;;;;;3.47;0.80;;;;;;;;;;21345579;27;20050;-69
2021/10/05 01:59:06;;;;;;;3.00;0.70;;;;;;;;;;21344518;27;20047;-58
2021/10/05 02:09:16;;;;;;;2.63;0.90;;;;;;;;;;21342605;27;20038;-69
2021/10/05 02:19:20;;;;;;;1.93;0.70;;;;;;;;;;21342052;27;20058;-58
2021/10/05 02:29:25;;;;;;;1.63;0.80;;;;;;;;;;21340196;27;20039;-56
2021/10/05 02:39:29;;;;;;;3.27;1.00;;;;;;;;;;21339155;27;20057;-58
2021/10/05 02:49:33;;;;;;;2.33;1.13;;;;;;;;;;21338633;27;20456;-57
2021/10/05 02:59:36;;;;;;;2.22;0.88;;;;;;;;;;21337186;27;20059;-66
2021/10/05 03:09:39;;;;;;;3.88;0.95;;;;;;;;;;21336754;27;20050;-68
2021/10/05 03:19:43;;;;;;;3.65;1.00;;;;;;;;;;21336391;27;20053;-68
2021/10/05 03:29:46;;;;;;;2.28;1.50;;;;;;;;;;21336098;27;20050;-66
2021/10/05 03:39:49;;;;;;;2.80;0.80;;;;;;;;;;21320119;27;20467;-68
2021/10/05 03:49:53;;;;;;;2.67;1.00;;;;;;;;;;21334429;27;20483;-67
2021/10/05 03:59:56;;;;;;;2.28;1.15;;;;;;;;;;21314881;27;20092;-68
2021/10/05 04:09:58;;;;;;;3.00;1.27;;;;;;;;;;21333091;27;20054;-63
2021/10/05 04:20:02;;;;;;;6.73;2.17;;;;;;;;;;21333216;27;20223;-64
2021/10/05 04:30:06;;;;;;;2.67;1.50;;;;;;;;;;21333865;27;20050;-58
2021/10/05 04:40:10;;;;;;;2.88;1.55;;;;;;;;;;21338537;27;20081;-67
2021/10/05 04:50:16;;;;;;;4.15;1.80;;;;;;;;;;21349015;27;20471;-56
2021/10/05 05:00:19;;;;;;;9.80;3.95;;;;;;;;;;21347422;27;20058;-67
2021/10/05 05:10:21;;;;;;;5.00;2.30;;;;;;;;;;21347283;27;20046;-59
2021/10/05 05:20:24;;;;;;;5.55;2.00;;;;;;;;;;21347330;27;20046;-58
2021/10/05 05:30:27;;;;;;;6.47;2.03;;;;;;;;;;21351772;27;20045;-57
2021/10/05 05:40:28;;;;;;;5.88;1.80;;;;;;;;;;21348042;27;20051;-66
2021/10/05 05:50:31;;;;;;;9.80;3.15;;;;;;;;;;21345481;27;20043;-59
2021/10/05 06:00:36;;;;;;;6.85;3.28;;;;;;;;;;21344184;27;20418;-68
2021/10/05 06:10:39;;;;;;;12.65;3.25;;;;;;;;;;21342624;27;20074;-59
2021/10/05 06:20:42;;;;;;;8.98;3.30;;;;;;;;;;21322923;27;20129;-63
2021/10/05 06:30:44;;;;;;;7.47;3.15;;;;;;;;;;21340540;27;20414;-67
2021/10/05 06:40:47;;;;;;;11.57;3.63;;;;;;;;;;21341085;27;20451;-59
2021/10/05 06:50:51;;;;;;;12.73;3.93;;;;;;;;;;21339556;27;20054;-68
2021/10/05 07:00:55;;;;;;;12.87;4.90;;;;;;;;;;21337412;27;20395;-70
2021/10/05 07:10:59;;;;;;;9.23;3.75;;;;;;;;;;21336639;27;20081;-67
2021/10/05 07:21:02;;;;;;;10.23;4.13;;;;;;;;;;21336717;27;20050;-67
2021/10/05 07:31:05;;;;;;;6.75;3.25;;;;;;;;;;21335521;27;20056;-68
2021/10/05 07:41:07;;;;;;;6.80;2.92;;;;;;;;;;21334841;27;20051;-69
2021/10/05 07:51:10;;;;;;;5.75;1.90;;;;;;;;;;21334124;27;20083;-66
2021/10/05 08:01:13;;;;;;;6.75;2.53;;;;;;;;;;21334011;27;20049;-68
2021/10/05 08:11:16;;;;;;;4.95;1.88;;;;;;;;;;21333840;27;20046;-69
2021/10/05 08:21:19;;;;;;;7.37;3.03;;;;;;;;;;21333455;27;20135;-69
2021/10/05 08:31:21;;;;;;;5.18;2.22;;;;;;;;;;21350374;27;20096;-68
2021/10/05 08:41:24;;;;;;;4.20;1.75;;;;;;;;;;21349806;27;20050;-58
2021/10/05 08:51:27;;;;;;;5.00;1.85;;;;;;;;;;21348049;27;20054;-68
2021/10/05 09:01:32;;;;;;;4.45;2.45;;;;;;;;;;21346961;27;20078;-60
2021/10/05 09:11:42;;;;;;;10.50;1.80;;;;;;;;;;21347296;27;20486;-58
2021/10/05 09:21:52;;;;;;;6.00;1.40;;;;;;;;;;21345583;27;20047;-68
2021/10/05 09:32:01;;;;;;;4.28;1.90;;;;;;;;;;21304547;27;20042;-59
2021/10/05 09:42:04;;;;;;;4.78;1.40;;;;;;;;;;21309209;27;20183;-58
2021/10/05 09:52:08;;;;;;;4.57;2.53;;;;;;;;;;21307521;27;20039;-57
2021/10/05 10:02:13;;;;;;;5.38;2.50;;;;;;;;;;21314015;27;20055;-55
2021/10/05 10:12:22;;;;;;;2.42;1.00;;;;;;;;;;21333026;27;20413;-54
2021/10/05 10:22:25;;;;;;;1.77;0.80;;;;;;;;;;21339975;27;20055;-54
2021/10/05 10:32:28;;;;;;;2.40;0.90;;;;;;;;;;21340354;27;20481;-54
2021/10/05 10:42:32;;;;;;;5.68;0.98;;;;;;;;;;21338019;27;20386;-58
2021/10/05 10:52:37;;;;;;;1.77;0.63;;;;;;;;;;21338391;27;20047;-54
2021/10/05 11:02:44;;;;;;;5.63;1.10;;;;;;;;;;21336603;27;20391;-53
2021/10/05 11:12:54;;;;;;;3.35;0.93;;;;;;;;;;21336839;27;20099;-55
2021/10/05 11:22:59;;;;;;;2.75;1.17;;;;;;;;;;21336978;27;20051;-58
2021/10/05 11:33:03;;;;;;;1.30;0.70;;;;;;;;;;21336994;27;20053;-56
2021/10/05 11:43:07;;;;;;;2.38;0.60;;;;;;;;;;21335346;27;20478;-60
2021/10/05 11:53:10;;;;;;;5.00;1.30;;;;;;;;;;21333730;27;20138;-57
2021/10/05 12:03:13;;;;;;;3.38;0.82;;;;;;;;;;21332125;27;20142;-58
2021/10/05 12:13:17;;;;;;;2.47;0.60;;;;;;;;;;21331834;27;20047;-63
2021/10/05 12:23:21;;;;;;;1.70;0.95;;;;;;;;;;21332522;27;20047;-63
2021/10/05 12:33:23;;;;;;;0.43;0.38;;;;;;;;;;21332722;27;20096;-63
2021/10/05 12:43:36;;;;;;;1.35;0.60;;;;;;;;;;21331701;27;20409;-63
2021/10/05 12:53:40;;;;;;;1.50;0.50;;;;;;;;;;21331404;27;20158;-64
2021/10/05 13:03:44;;;;;;;0.32;0.32;;;;;;;;;;21341242;27;20418;-66
2021/10/05 13:13:47;;;;;;;0.95;0.40;;;;;;;;;;21346945;27;20104;-66
2021/10/05 13:23:49;;;;;;;2.42;0.63;;;;;;;;;;21346696;27;20547;-69
2021/10/05 13:33:53;;;;;;;2.08;0.85;;;;;;;;;;21345492;27;20105;-65
2021/10/05 13:43:56;;;;;;;2.08;0.50;;;;;;;;;;21344731;27;20554;-64
2021/10/05 13:53:58;;;;;;;1.17;0.60;;;;;;;;;;21343899;27;20043;-63
2021/10/05 14:04:01;;;;;;;1.67;0.70;;;;;;;;;;21342692;27;20093;-64
2021/10/05 14:14:03;;;;;;;0.93;0.40;;;;;;;;;;21341210;27;20047;-65
2021/10/05 14:24:05;;;;;;;9.23;3.93;;;;;;;;;;21340511;27;20092;-65
2021/10/05 14:34:08;;;;;;;2.35;1.55;;;;;;;;;;21339861;27;20054;-65
2021/10/05 14:44:11;;;;;;;1.17;0.60;;;;;;;;;;21339255;27;20051;-62
2021/10/05 14:54:13;;;;;;;5.47;4.33;;;;;;;;;;21337959;27;20039;-63
2021/10/05 15:04:15;;;;;;;3.20;1.10;;;;;;;;;;21337455;27;20486;-63
2021/10/05 15:14:18;;;;;;;1.75;0.60;;;;;;;;;;21337075;27;20091;-63
2021/10/05 15:24:21;;;;;;;1.90;0.60;;;;;;;;;;21336744;27;20405;-63
2021/10/05 15:34:23;;;;;;;2.47;1.40;;;;;;;;;;21335016;27;20057;-63
2021/10/05 15:44:25;;;;;;;1.63;0.50;;;;;;;;;;21334643;27;20306;-62
2021/10/05 15:54:27;;;;;;;1.40;0.70;;;;;;;;;;21334803;27;20486;-64
2021/10/05 16:04:30;;;;;;;0.93;0.63;;;;;;;;;;21314901;27;20054;-63
2021/10/05 16:14:32;;;;;;;1.17;0.50;;;;;;;;;;21332420;27;20043;-63
2021/10/05 16:24:34;;;;;;;2.50;0.68;;;;;;;;;;21332051;27;20431;-65
2021/10/05 16:34:38;;;;;;;3.53;0.77;;;;;;;;;;21318400;27;20078;-63
2021/10/05 16:44:40;;;;;;;1.70;1.10;;;;;;;;;;21348174;27;20054;-61
2021/10/05 16:54:42;;;;;;;2.50;0.88;;;;;;;;;;21347574;27;20054;-63
2021/10/05 17:04:44;;;;;;;1.15;0.75;;;;;;;;;;21346576;27;20125;-63
2021/10/05 17:14:47;;;;;;;2.00;1.00;;;;;;;;;;21346847;27;20043;-64
2021/10/05 17:24:49;;;;;;;2.37;0.77;;;;;;;;;;21347110;27;20061;-65
2021/10/05 17:34:51;;;;;;;2.45;0.73;;;;;;;;;;21363954;27;20050;-66
2021/10/05 17:44:53;;;;;;;0.90;0.50;;;;;;;;;;21342181;27;20405;-58
2021/10/05 17:54:56;;;;;;;4.45;1.67;;;;;;;;;;21341414;27;20134;-56
2021/10/05 18:04:59;;;;;;;3.22;1.20;;;;;;;;;;21281368;27;20054;-52
2021/10/05 18:15:02;;;;;;;3.00;1.65;;;;;;;;;;21252202;27;20138;-54
2021/10/05 18:25:05;;;;;;;5.97;1.63;;;;;;;;;;21251940;27;20055;-57
2021/10/05 18:35:08;;;;;;;5.10;1.85;;;;;;;;;;21251381;27;20054;-62
2021/10/05 18:45:10;;;;;;;4.70;1.90;;;;;;;;;;21269812;27;20058;-55
2021/10/05 18:55:12;;;;;;;2.15;0.90;;;;;;;;;;21336174;27;20069;-59
2021/10/05 19:05:14;;;;;;;5.22;1.95;;;;;;;;;;21300975;27;20069;-54
2021/10/05 19:15:16;;;;;;;3.17;1.52;;;;;;;;;;21290693;27;20182;-57
2021/10/05 19:25:18;;;;;;;4.35;1.50;;;;;;;;;;21267339;27;20415;-60
2021/10/05 19:35:22;;;;;;;3.10;1.17;;;;;;;;;;21247141;27;20415;-55
2021/10/05 19:45:24;;;;;;;4.40;1.58;;;;;;;;;;21245917;27;20138;-54
2021/10/05 19:55:26;;;;;;;2.40;1.40;;;;;;;;;;21245846;27;20495;-56
2021/10/05 20:05:29;;;;;;;3.55;1.73;;;;;;;;;;21245576;27;20502;-54
2021/10/05 20:15:31;;;;;;;4.25;2.25;;;;;;;;;;21245996;27;20448;-56
2021/10/05 20:25:34;;;;;;;4.70;1.95;;;;;;;;;;21245341;28;20462;-60
2021/10/05 20:35:37;;;;;;;6.63;1.80;;;;;;;;;;21246630;28;20422;-57
2021/10/05 20:45:39;;;;;;;3.23;2.00;;;;;;;;;;21245070;28;20414;-54
2021/10/05 20:55:42;;;;;;;3.30;1.53;;;;;;;;;;21245775;28;20047;-54
2021/10/05 21:05:44;;;;;;;4.85;1.60;;;;;;;;;;21246503;28;20458;-59
2021/10/05 21:15:47;;;;;;;3.15;1.80;;;;;;;;;;21227330;28;20051;-56
2021/10/05 21:25:49;;;;;;;2.72;1.58;;;;;;;;;;21256648;27;20096;-56
2021/10/05 21:35:52;;;;;;;4.00;1.70;;;;;;;;;;21241484;27;20142;-54
2021/10/05 21:45:54;;;;;;;5.25;2.83;;;;;;;;;;21259664;27;20043;-60
2021/10/05 21:55:56;;;;;;;5.93;2.00;;;;;;;;;;21258619;27;20475;-58
2021/10/05 22:05:58;;;;;;;2.50;1.75;;;;;;;;;;21257206;27;20061;-57
2021/10/05 22:16:00;;;;;;;4.35;2.80;;;;;;;;;;21256027;27;20043;-58
2021/10/05 22:26:03;;;;;;;4.88;2.42;;;;;;;;;;21255997;27;20047;-59
2021/10/05 22:36:05;;;;;;;4.95;1.88;;;;;;;;;;21255432;27;20050;-55
2021/10/05 22:46:07;;;;;;;4.13;2.92;;;;;;;;;;21254031;27;20414;-59
2021/10/05 22:56:09;;;;;;;2.17;1.20;;;;;;;;;;21252781;27;20495;-60
2021/10/05 23:06:11;;;;;;;1.50;0.98;;;;;;;;;;21251907;27;20043;-58
2021/10/05 23:16:14;;;;;;;1.75;0.98;;;;;;;;;;21250796;27;20138;-55
2021/10/05 23:26:16;;;;;;;2.22;1.00;;;;;;;;;;21250356;27;20051;-59
2021/10/05 23:36:18;;;;;;;2.00;0.93;;;;;;;;;;21249453;27;20054;-58
2021/10/05 23:46:20;;;;;;;1.90;0.98;;;;;;;;;;21249190;27;20058;-55
2021/10/05 23:56:22;;;;;;;3.45;0.98;;;;;;;;;;21239630;27;20047;-57
